Time;durP1;ratioP1;P1;durP2;ratioP2;P2;SDS_P1;SDS_P2;PMS_P1;PMS_P2;Temp;Humidity;BMP_temperature;BMP_pressure;BME280_temperature;BME280_humidity;BME280_pressure;Samples;Min_cycle;Max_cycle;Signal;HPM_P1;HPM_P2
2024/01/31 00:01:40;;;;;;;3.40;1.23;;;;;;;18.12;41.17;103335.84;16119603;19;129988;-64
2024/01/31 00:07:05;;;;;;;3.80;1.10;;;;;;;18.10;41.00;103335.16;16119367;19;129410;-64
2024/01/31 00:12:27;;;;;;;2.97;0.93;;;;;;;18.07;40.99;103338.28;16115961;19;130375;-64
2024/01/31 00:17:51;;;;;;;2.40;1.05;;;;;;;18.07;41.10;103338.28;16122854;19;133147;-63
2024/01/31 00:23:13;;;;;;;1.50;0.80;;;;;;;18.05;41.26;103335.69;16117765;19;129685;-63
2024/01/31 00:28:35;;;;;;;1.55;0.77;;;;;;;18.03;41.08;103343.34;16117549;19;133548;-63
2024/01/31 00:33:57;;;;;;;2.88;1.10;;;;;;;18.00;41.12;103349.22;16117080;19;129509;-63
2024/01/31 00:39:20;;;;;;;2.38;1.00;;;;;;;17.99;41.53;103355.81;16119776;19;131314;-64
2024/01/31 00:44:42;;;;;;;2.30;1.00;;;;;;;17.97;41.52;103366.25;16118136;19;129732;-63
2024/01/31 00:50:05;;;;;;;2.65;0.80;;;;;;;17.95;41.48;103371.94;16112337;19;129464;-63
2024/01/31 00:55:27;;;;;;;1.85;0.82;;;;;;;17.95;41.52;103368.31;16117728;19;129670;-64
2024/01/31 01:00:49;;;;;;;2.10;0.68;;;;;;;17.92;41.40;103368.69;16116681;19;132769;-64
2024/01/31 01:06:11;;;;;;;1.83;0.80;;;;;;;17.90;41.40;103368.88;16116518;19;130817;-64
2024/01/31 01:11:33;;;;;;;2.00;0.95;;;;;;;17.88;41.60;103379.25;16117700;19;129557;-64
2024/01/31 01:16:55;;;;;;;1.38;0.70;;;;;;;17.87;41.43;103382.19;16114881;19;130949;-64
2024/01/31 01:22:17;;;;;;;2.00;1.00;;;;;;;17.84;41.60;103376.00;16117768;19;129587;-64
2024/01/31 01:27:39;;;;;;;1.58;1.02;;;;;;;17.82;41.27;103375.31;16113634;19;131356;-63
2024/01/31 01:33:01;;;;;;;1.50;0.80;;;;;;;17.81;41.48;103378.25;16115294;19;129873;-64
2024/01/31 01:38:23;;;;;;;0.80;0.60;;;;;;;17.80;41.49;103370.97;16111476;19;130231;-64
2024/01/31 01:43:45;;;;;;;1.70;0.73;;;;;;;17.78;41.63;103376.69;16116771;19;130647;-64
2024/01/31 01:49:07;;;;;;;2.13;0.88;;;;;;;17.75;41.39;103379.81;16111526;19;129337;-64
2024/01/31 01:54:30;;;;;;;2.35;0.73;;;;;;;17.75;41.53;103384.50;16117336;19;129611;-63
2024/01/31 01:59:52;;;;;;;0.68;0.50;;;;;;;17.73;41.54;103379.13;16109880;19;131378;-64
2024/01/31 02:05:14;;;;;;;1.35;0.60;;;;;;;17.72;41.60;103380.22;16114589;19;134963;-63
2024/01/31 02:10:36;;;;;;;0.95;0.60;;;;;;;17.71;41.67;103384.03;16114002;19;130545;-63
2024/01/31 02:15:58;;;;;;;1.10;0.50;;;;;;;17.70;41.17;103376.75;16109434;19;130840;-63
2024/01/31 02:21:23;;;;;;;0.65;0.43;;;;;;;17.69;41.60;103370.34;16110373;19;131286;-64
2024/01/31 02:26:46;;;;;;;1.07;0.30;;;;;;;17.68;41.49;103363.06;16120738;19;130366;-64
2024/01/31 02:32:08;;;;;;;0.40;0.20;;;;;;;17.67;41.37;103363.25;16126691;19;129791;-63
2024/01/31 02:37:30;;;;;;;0.80;0.30;;;;;;;17.65;41.40;103366.22;16123581;19;130983;-63
2024/01/31 02:42:53;;;;;;;1.02;0.20;;;;;;;17.64;41.33;103360.84;16128349;19;129117;-63
2024/01/31 02:48:15;;;;;;;0.20;0.20;;;;;;;17.63;41.57;103367.44;16127509;19;130117;-63
2024/01/31 02:53:37;;;;;;;0.38;0.28;;;;;;;17.61;41.51;103355.66;16128290;19;131075;-63
2024/01/31 02:58:59;;;;;;;0.38;0.20;;;;;;;17.60;41.51;103351.19;16130437;19;131097;-64
2024/01/31 03:04:21;;;;;;;0.68;0.47;;;;;;;17.59;41.34;103353.09;16141273;19;129478;-63
2024/01/31 03:09:43;;;;;;;1.60;0.40;;;;;;;17.55;41.57;103357.25;16137904;19;130215;-64
2024/01/31 03:15:05;;;;;;;0.60;0.47;;;;;;;17.52;41.58;103349.28;16143637;19;129224;-64
2024/01/31 03:20:27;;;;;;;0.70;0.32;;;;;;;17.51;41.21;103345.66;16144595;19;129542;-64
2024/01/31 03:25:50;;;;;;;0.30;0.30;;;;;;;17.49;41.49;103341.34;16143642;19;131338;-64
2024/01/31 03:31:12;;;;;;;1.42;0.60;;;;;;;17.47;41.62;103337.88;16129348;19;129820;-64
2024/01/31 03:36:34;;;;;;;0.60;0.55;;;;;;;17.45;41.20;103328.91;16122161;19;130465;-64
2024/01/31 03:41:56;;;;;;;0.70;0.50;;;;;;;17.43;41.19;103331.84;16123498;19;129272;-64
2024/01/31 03:47:18;;;;;;;1.80;0.60;;;;;;;17.41;41.26;103327.56;16123919;19;130285;-64
2024/01/31 03:52:40;;;;;;;0.45;0.40;;;;;;;17.40;41.37;103315.59;16124417;19;129589;-64
2024/01/31 03:58:03;;;;;;;0.75;0.50;;;;;;;17.38;41.58;103306.63;16132640;19;130845;-64
2024/01/31 04:03:25;;;;;;;1.00;0.80;;;;;;;17.36;41.18;103308.69;16126548;19;129715;-63
2024/01/31 04:08:47;;;;;;;1.20;0.75;;;;;;;17.35;41.28;103315.31;16117245;19;130755;-63
2024/01/31 04:14:09;;;;;;;1.73;0.90;;;;;;;17.33;41.19;103320.13;16117301;19;129681;-64
2024/01/31 04:19:31;;;;;;;0.77;0.60;;;;;;;17.31;41.20;103328.59;16119521;19;131111;-63
2024/01/31 04:24:53;;;;;;;0.70;0.65;;;;;;;17.29;41.15;103333.47;16119461;19;131378;-63
2024/01/31 04:30:15;;;;;;;0.75;0.70;;;;;;;17.28;41.54;103328.97;16120344;19;130721;-63
2024/01/31 04:35:37;;;;;;;0.73;0.52;;;;;;;17.26;41.61;103331.06;16115719;19;128981;-64
2024/01/31 04:40:59;;;;;;;0.90;0.60;;;;;;;17.26;41.35;103324.66;16117949;19;130782;-63
2024/01/31 04:46:21;;;;;;;0.73;0.60;;;;;;;17.23;41.26;103317.56;16118843;19;129550;-64
2024/01/31 04:51:43;;;;;;;1.65;0.75;;;;;;;17.22;41.46;103332.44;16118529;19;129643;-64
2024/01/31 04:57:06;;;;;;;1.42;0.65;;;;;;;17.21;41.55;103325.19;16118881;19;130462;-64
2024/01/31 05:02:28;;;;;;;1.00;0.70;;;;;;;17.19;41.27;103317.06;16118649;19;130303;-64
2024/01/31 05:07:50;;;;;;;1.40;0.80;;;;;;;17.18;41.68;103311.69;16117963;19;136350;-64
2024/01/31 05:13:12;;;;;;;0.73;0.60;;;;;;;17.17;41.18;103308.09;16111780;19;130759;-64
2024/01/31 05:18:35;;;;;;;0.80;0.60;;;;;;;17.14;41.31;103308.44;16115241;19;134419;-62
2024/01/31 05:23:57;;;;;;;0.80;0.60;;;;;;;17.14;41.30;103302.06;16112354;19;129673;-63
2024/01/31 05:29:19;;;;;;;1.35;0.80;;;;;;;17.13;41.46;103303.94;16112334;19;130110;-63
2024/01/31 05:34:44;;;;;;;1.85;0.80;;;;;;;17.11;41.58;103299.63;16111108;19;131308;-63
2024/01/31 05:40:08;;;;;;;1.33;0.80;;;;;;;17.10;41.39;103297.91;16114837;19;129949;-64
2024/01/31 05:45:30;;;;;;;0.73;0.73;;;;;;;17.08;41.57;103304.47;16114820;19;134700;-64
2024/01/31 05:50:51;;;;;;;1.13;0.73;;;;;;;17.06;41.39;103303.78;16113453;19;131092;-64
2024/01/31 05:56:15;;;;;;;0.98;0.70;;;;;;;17.05;41.57;103299.28;16113547;19;130209;-64
2024/01/31 06:01:37;;;;;;;1.20;0.73;;;;;;;17.05;41.42;103312.28;16108289;19;129977;-64
2024/01/31 06:07:00;;;;;;;1.17;0.70;;;;;;;17.11;41.62;103297.72;16113688;19;130325;-63
2024/01/31 06:12:21;;;;;;;1.10;0.70;;;;;;;17.22;41.56;103302.91;16108865;19;129963;-64
2024/01/31 06:17:44;;;;;;;1.52;0.63;;;;;;;17.35;41.18;103313.38;16110788;19;130933;-67
2024/01/31 06:23:11;;;;;;;2.33;1.38;;;;;;;17.48;41.38;103312.78;16115014;19;131044;-67
2024/01/31 06:28:38;;;;;;;1.88;1.08;;;;;;;17.59;41.82;103314.34;16110230;19;129903;-67
2024/01/31 06:34:00;;;;;;;2.33;1.10;;;;;;;17.69;41.84;103297.50;16108579;19;129856;-66
2024/01/31 06:39:22;;;;;;;2.83;1.23;;;;;;;17.79;42.05;103286.19;16125181;19;129550;-65
2024/01/31 06:44:44;;;;;;;3.83;1.30;;;;;;;17.91;41.73;103279.19;16126621;19;131220;-68
2024/01/31 06:50:06;;;;;;;2.78;1.48;;;;;;;18.02;41.95;103279.81;16123651;19;129809;-63
2024/01/31 06:55:28;;;;;;;4.38;3.53;;;;;;;18.06;41.05;103273.72;16127364;19;130278;-66
2024/01/31 07:00:53;;;;;;;13.98;5.43;;;;;;;17.96;40.30;103281.41;16124048;19;129628;-64
2024/01/31 07:06:16;;;;;;;5.70;3.78;;;;;;;17.88;40.69;103287.88;16120586;19;130599;-65
2024/01/31 07:11:37;;;;;;;7.78;3.08;;;;;;;17.91;40.25;103300.47;16122300;19;130347;-62
2024/01/31 07:17:02;;;;;;;7.23;2.77;;;;;;;17.93;40.01;103304.78;16120839;19;129713;-63
2024/01/31 07:22:24;;;;;;;6.63;2.72;;;;;;;17.96;40.15;103332.13;16125154;19;131890;-64
2024/01/31 07:27:46;;;;;;;3.80;1.77;;;;;;;17.96;40.09;103348.75;16122454;19;130634;-63
2024/01/31 07:33:08;;;;;;;5.10;1.50;;;;;;;17.96;39.95;103359.81;16122029;19;129508;-64
2024/01/31 07:38:30;;;;;;;2.22;1.23;;;;;;;17.95;40.13;103358.09;16119043;19;129746;-64
2024/01/31 07:43:52;;;;;;;3.53;1.60;;;;;;;17.93;40.26;103351.00;16122784;19;131745;-63
2024/01/31 07:49:14;;;;;;;1.95;1.02;;;;;;;17.91;40.41;103348.41;16119465;19;133859;-64
2024/01/31 07:54:36;;;;;;;2.47;1.13;;;;;;;17.88;40.07;103348.78;16118105;19;130933;-65
2024/01/31 07:59:58;;;;;;;2.90;1.20;;;;;;;17.85;40.49;103336.16;16118822;19;131276;-65
2024/01/31 08:05:21;;;;;;;2.33;0.80;;;;;;;17.83;40.45;103326.31;16121090;19;130445;-63
2024/01/31 08:10:42;;;;;;;1.40;0.90;;;;;;;17.80;40.32;103330.31;16120562;19;130519;-64
2024/01/31 08:16:10;;;;;;;1.17;0.70;;;;;;;17.80;40.49;103332.22;16120108;19;129420;-65
2024/01/31 08:21:33;;;;;;;1.33;0.85;;;;;;;17.76;40.50;103342.78;16119598;19;129496;-64
2024/01/31 08:26:55;;;;;;;2.28;1.00;;;;;;;17.74;40.40;103344.88;16124452;19;133308;-64
2024/01/31 08:32:16;;;;;;;4.28;0.85;;;;;;;17.73;40.72;103345.91;16118197;19;130294;-64
2024/01/31 08:37:39;;;;;;;1.50;0.98;;;;;;;17.73;40.35;103339.53;16114127;19;131380;-64
2024/01/31 08:43:01;;;;;;;1.88;0.85;;;;;;;17.71;40.35;103338.84;16115999;19;130475;-64
2024/01/31 08:48:23;;;;;;;2.00;0.90;;;;;;;17.68;40.52;103329.84;16114687;19;129796;-64
2024/01/31 08:53:46;;;;;;;3.13;0.70;;;;;;;17.67;40.67;103322.59;16117303;19;130917;-64
2024/01/31 08:59:07;;;;;;;8.10;1.20;;;;;;;17.64;40.83;103317.44;16114565;19;130687;-65
2024/01/31 09:04:29;;;;;;;5.55;1.25;;;;;;;17.63;40.64;103315.72;16120431;19;133998;-65
2024/01/31 09:09:53;;;;;;;4.60;0.93;;;;;;;17.61;40.80;103308.59;16118617;19;130942;-64
2024/01/31 09:15:17;;;;;;;3.63;1.20;;;;;;;17.57;40.84;103290.66;16116121;19;129730;-64
2024/01/31 09:20:39;;;;;;;4.32;1.40;;;;;;;17.55;40.40;103285.28;16114951;19;129725;-65
2024/01/31 09:26:02;;;;;;;2.75;1.20;;;;;;;17.55;40.51;103274.22;16116933;19;132238;-63
2024/01/31 09:31:25;;;;;;;4.53;1.20;;;;;;;17.55;40.89;103260.38;16114351;19;130740;-64
2024/01/31 09:36:48;;;;;;;11.13;1.40;;;;;;;17.54;40.52;103251.22;16112117;19;131319;-64
2024/01/31 09:42:10;;;;;;;4.40;2.67;;;;;;;17.54;40.32;103244.78;16115177;19;129943;-64
2024/01/31 09:47:36;;;;;;;9.50;2.20;;;;;;;17.54;40.75;103231.84;16117671;19;129537;-66
2024/01/31 09:53:01;;;;;;;;;;;;;;;17.53;40.41;103232.84;16116071;19;129969;-64
2024/01/31 09:58:23;;;;;;;10.75;1.77;;;;;;;17.57;40.79;103243.59;16112854;19;129623;-65
2024/01/31 10:03:45;;;;;;;10.25;2.13;;;;;;;17.57;40.55;103236.16;16112973;19;129634;-64
2024/01/31 10:09:07;;;;;;;5.85;2.08;;;;;;;17.58;40.57;103239.78;16109007;19;131761;-64
2024/01/31 10:14:29;;;;;;;7.88;1.90;;;;;;;17.56;40.32;103239.97;16110586;19;133152;-64
2024/01/31 10:19:51;;;;;;;4.75;1.42;;;;;;;17.54;40.22;103251.22;16113553;19;130085;-64
2024/01/31 10:25:17;;;;;;;4.25;1.70;;;;;;;17.53;40.49;103255.00;16113667;19;129551;-64
2024/01/31 10:30:48;;;;;;;9.00;1.57;;;;;;;17.53;40.03;103270.75;16110643;19;130043;-64
2024/01/31 10:36:10;;;;;;;4.03;1.48;;;;;;;17.49;40.37;103267.47;16108521;19;130466;-64
2024/01/31 10:41:35;;;;;;;2.85;1.23;;;;;;;17.46;40.21;103270.63;16108542;19;130804;-64
2024/01/31 10:46:57;;;;;;;3.65;1.40;;;;;;;17.45;40.22;103256.94;16108560;19;129254;-62
2024/01/31 10:52:26;;;;;;;7.68;1.42;;;;;;;17.43;40.32;103259.91;16110662;19;129324;-64
2024/01/31 10:57:48;;;;;;;4.70;1.23;;;;;;;17.40;39.93;103254.72;16108638;19;129542;-63
2024/01/31 11:03:14;;;;;;;4.93;1.30;;;;;;;17.39;39.96;103261.31;16105008;19;132448;-64
2024/01/31 11:08:40;;;;;;;1.95;0.95;;;;;;;17.36;40.19;103259.75;16107574;19;130689;-63
2024/01/31 11:14:08;;;;;;;2.80;1.08;;;;;;;17.37;40.15;103255.09;16107953;19;129884;-63
2024/01/31 11:19:34;;;;;;;6.15;1.00;;;;;;;17.33;40.00;103243.53;16109144;19;130127;-64
2024/01/31 11:24:58;;;;;;;;;;;;;;;17.29;40.18;103225.56;16117089;19;130635;-63
2024/01/31 11:30:22;;;;;;;1.92;0.85;;;;;;;17.31;40.15;103229.00;16124769;19;129819;-67
2024/01/31 11:35:45;;;;;;;1.80;0.70;;;;;;;17.38;39.94;103226.38;16119194;19;130331;-64
2024/01/31 11:41:07;;;;;;;4.00;1.10;;;;;;;17.47;39.17;103193.97;16122631;19;129210;-64
2024/01/31 11:46:29;;;;;;;3.38;1.10;;;;;;;17.57;39.43;103185.47;16120986;19;130219;-64
2024/01/31 11:51:51;;;;;;;3.55;0.82;;;;;;;17.63;38.97;103165.34;16118628;19;129751;-64
2024/01/31 11:57:14;;;;;;;1.75;0.75;;;;;;;17.63;38.68;103155.16;16119316;19;129527;-64
2024/01/31 12:02:36;;;;;;;4.93;0.80;;;;;;;17.63;38.87;103138.56;16119152;19;129643;-63
2024/01/31 12:07:59;;;;;;;3.38;0.90;;;;;;;17.64;38.45;103144.94;16118210;19;131236;-66
2024/01/31 12:13:21;;;;;;;2.10;0.80;;;;;;;17.64;38.82;103128.31;16118255;19;131149;-64
2024/01/31 12:18:43;;;;;;;3.55;0.77;;;;;;;17.62;38.60;103125.75;16121580;19;129641;-64
2024/01/31 12:24:05;;;;;;;4.10;0.65;;;;;;;17.63;38.20;103127.47;16120094;19;131499;-64
2024/01/31 12:29:31;;;;;;;2.67;0.80;;;;;;;17.67;37.99;103116.88;16119955;19;131427;-64
2024/01/31 12:34:53;;;;;;;3.40;0.68;;;;;;;17.67;37.65;103119.66;16118414;19;130618;-63
2024/01/31 12:40:15;;;;;;;3.08;0.70;;;;;;;17.72;37.46;103105.25;16116508;19;129745;-62
2024/01/31 12:45:38;;;;;;;1.15;0.60;;;;;;;17.74;37.16;103094.84;16116813;19;130453;-63
2024/01/31 12:51:00;;;;;;;1.35;0.50;;;;;;;17.76;37.08;103095.53;16118787;19;131097;-62
2024/01/31 12:56:22;;;;;;;1.45;0.70;;;;;;;17.75;36.98;103100.19;16116079;19;129736;-63
2024/01/31 13:01:44;;;;;;;2.67;0.55;;;;;;;17.75;36.87;103091.88;16113892;19;129658;-62
2024/01/31 13:07:06;;;;;;;0.88;0.40;;;;;;;17.73;36.91;103099.50;16113998;19;129560;-63
2024/01/31 13:12:29;;;;;;;2.90;0.80;;;;;;;17.73;36.40;103099.50;16114175;19;129411;-63
2024/01/31 13:17:51;;;;;;;1.08;0.60;;;;;;;17.69;36.52;103087.13;16113057;19;129733;-63
2024/01/31 13:23:15;;;;;;;7.65;0.70;;;;;;;17.64;36.35;103075.72;16115989;19;131152;-65
2024/01/31 13:28:37;;;;;;;18.15;1.35;;;;;;;17.62;36.34;103056.56;16114752;19;129656;-66
2024/01/31 13:33:59;;;;;;;8.70;1.60;;;;;;;17.62;36.43;103050.16;16114589;19;129253;-63
2024/01/31 13:39:22;;;;;;;19.30;1.77;;;;;;;17.59;36.45;103045.00;16112596;19;129941;-63
2024/01/31 13:44:44;;;;;;;15.75;1.15;;;;;;;17.58;35.94;103018.38;16110855;19;130181;-63
2024/01/31 13:50:06;;;;;;;11.93;1.52;;;;;;;17.57;35.57;103019.41;16111283;19;131060;-64
2024/01/31 13:55:29;;;;;;;7.53;0.90;;;;;;;17.58;35.58;103007.31;16111152;19;129848;-63
2024/01/31 14:00:51;;;;;;;5.43;0.88;;;;;;;17.58;35.55;102999.00;16111921;19;129222;-64
2024/01/31 14:06:13;;;;;;;11.15;1.20;;;;;;;17.59;35.46;102997.97;16108493;19;129636;-63
2024/01/31 14:11:35;;;;;;;7.07;1.58;;;;;;;17.61;35.42;102991.19;16113030;19;136515;-64
2024/01/31 14:16:58;;;;;;;7.63;1.15;;;;;;;17.63;35.76;102983.53;16112267;19;130790;-64
2024/01/31 14:22:20;;;;;;;9.45;1.27;;;;;;;17.68;35.88;102996.81;16113199;19;129686;-64
2024/01/31 14:27:56;;;;;;;4.97;1.00;;;;;;;17.73;35.67;102980.47;16110748;19;131537;-64
2024/01/31 14:33:18;;;;;;;3.00;0.82;;;;;;;17.82;35.44;102962.75;16106799;19;129197;-64
2024/01/31 14:38:40;;;;;;;3.72;0.73;;;;;;;17.91;35.59;102944.09;16111404;19;130783;-64
2024/01/31 14:44:02;;;;;;;4.63;0.70;;;;;;;18.04;35.66;102926.81;16109280;19;129393;-63
2024/01/31 14:49:24;;;;;;;3.58;0.85;;;;;;;18.17;35.19;102900.34;16104203;19;130757;-63
2024/01/31 14:54:46;;;;;;;3.55;0.80;;;;;;;18.29;35.02;102890.47;16108482;19;130532;-63
2024/01/31 15:00:08;;;;;;;5.57;0.95;;;;;;;18.43;35.21;102889.59;16119424;19;129467;-63
2024/01/31 15:05:31;;;;;;;1.75;0.60;;;;;;;18.55;34.95;102905.69;16122768;19;131293;-63
2024/01/31 15:10:53;;;;;;;3.63;0.70;;;;;;;18.60;35.03;102920.66;16119925;19;129812;-63
2024/01/31 15:16:15;;;;;;;4.72;1.10;;;;;;;18.57;34.93;102921.06;16116626;19;130728;-69
2024/01/31 15:21:37;;;;;;;6.57;0.82;;;;;;;18.52;34.88;102926.34;16120642;19;129446;-64
2024/01/31 15:26:59;;;;;;;4.93;0.70;;;;;;;18.45;34.86;102926.28;16120949;19;130579;-63
2024/01/31 15:32:21;;;;;;;5.97;0.75;;;;;;;18.39;35.04;102923.41;16118893;19;130894;-63
2024/01/31 15:37:44;;;;;;;4.18;0.90;;;;;;;18.31;34.77;102919.69;16122466;19;130318;-63
2024/01/31 15:43:06;;;;;;;2.50;0.50;;;;;;;18.22;35.20;102911.66;16121855;19;129122;-64
2024/01/31 15:48:28;;;;;;;8.23;0.82;;;;;;;18.14;35.31;102896.91;16120933;19;129681;-64
2024/01/31 15:53:50;;;;;;;6.35;0.80;;;;;;;18.08;35.21;102916.19;16121601;19;129342;-64
2024/01/31 15:59:14;;;;;;;3.47;0.55;;;;;;;18.01;35.05;102918.88;16121812;19;129208;-64
2024/01/31 16:04:36;;;;;;;2.50;0.50;;;;;;;17.96;35.16;102910.31;16117871;19;130800;-64
2024/01/31 16:09:57;;;;;;;2.95;0.98;;;;;;;17.90;35.27;102905.53;16117087;19;129364;-64
2024/01/31 16:15:19;;;;;;;2.65;0.77;;;;;;;17.85;35.73;102909.72;16121669;19;130478;-63
2024/01/31 16:20:44;;;;;;;3.47;0.50;;;;;;;17.81;35.45;102897.34;16119798;19;130268;-64
2024/01/31 16:26:07;;;;;;;2.25;0.52;;;;;;;17.77;35.67;102893.22;16116353;19;129541;-63
2024/01/31 16:31:29;;;;;;;3.75;0.60;;;;;;;17.78;35.65;102880.28;16120395;19;130732;-63
2024/01/31 16:36:51;;;;;;;14.43;1.17;;;;;;;17.79;35.91;102874.53;16115406;19;129399;-68
2024/01/31 16:42:13;;;;;;;17.05;1.27;;;;;;;17.81;35.97;102858.59;16114556;19;130550;-65
2024/01/31 16:47:35;;;;;;;16.40;1.50;;;;;;;17.87;36.85;102856.06;16109808;19;129921;-67
2024/01/31 16:52:57;;;;;;;31.02;2.70;;;;;;;17.94;37.14;102832.09;16114236;19;131007;-67
2024/01/31 16:58:19;;;;;;;93.75;16.88;;;;;;;17.99;37.10;102832.38;16117013;19;130014;-67
2024/01/31 17:03:44;;;;;;;101.90;27.45;;;;;;;18.06;38.47;102816.69;16119867;19;129959;-65
2024/01/31 17:09:06;;;;;;;51.25;14.88;;;;;;;18.11;38.67;102822.50;16109102;19;130338;-64
2024/01/31 17:14:29;;;;;;;42.95;9.57;;;;;;;18.19;39.59;102799.34;16110205;19;129511;-64
2024/01/31 17:20:04;;;;;;;36.13;7.38;;;;;;;18.28;39.21;102808.38;16110197;19;129336;-66
2024/01/31 17:25:26;;;;;;;19.50;5.53;;;;;;;18.33;39.10;102788.41;16106238;19;130095;-64
2024/01/31 17:30:49;;;;;;;24.98;4.82;;;;;;;18.37;38.13;102798.88;16110445;19;130718;-65
2024/01/31 17:36:11;;;;;;;16.70;4.35;;;;;;;18.37;37.96;102793.34;16110857;19;130342;-69
2024/01/31 17:41:33;;;;;;;16.23;3.80;;;;;;;18.36;38.18;102772.22;16113484;19;131904;-67
2024/01/31 17:46:55;;;;;;;13.38;2.92;;;;;;;18.32;37.23;102793.09;16111237;19;129657;-62
2024/01/31 17:52:17;;;;;;;14.85;2.15;;;;;;;18.23;36.39;102805.34;16103412;19;130343;-64
2024/01/31 17:57:39;;;;;;;12.52;2.25;;;;;;;18.18;35.67;102818.94;16116383;19;130252;-69
2024/01/31 18:03:01;;;;;;;11.13;2.00;;;;;;;18.20;35.62;102822.38;16114943;19;130497;-67
2024/01/31 18:08:24;;;;;;;11.38;2.25;;;;;;;18.24;35.30;102818.13;16135984;19;130190;-62
2024/01/31 18:13:49;;;;;;;15.75;2.38;;;;;;;18.24;35.16;102807.94;16127023;19;131307;-66
2024/01/31 18:19:12;;;;;;;14.70;2.03;;;;;;;18.24;34.68;102796.84;16165532;19;129948;-63
2024/01/31 18:24:34;;;;;;;17.80;2.03;;;;;;;18.23;34.42;102806.22;16178767;19;129737;-66
2024/01/31 18:30:20;;;;;;;24.73;2.25;;;;;;;18.25;34.30;102803.22;16171652;19;129486;-65
2024/01/31 18:35:42;;;;;;;11.77;2.22;;;;;;;18.31;34.12;102780.28;16195431;19;130376;-65
2024/01/31 18:41:05;;;;;;;19.40;2.38;;;;;;;18.37;34.39;102773.94;16193847;19;129863;-64
2024/01/31 18:46:27;;;;;;;14.38;2.05;;;;;;;18.43;34.37;102767.66;16132411;19;131733;-63
2024/01/31 18:51:49;;;;;;;22.88;2.15;;;;;;;18.50;34.61;102770.47;16106694;19;131502;-70
2024/01/31 18:57:13;;;;;;;7.40;1.90;;;;;;;18.54;34.03;102769.00;16145645;19;129469;-67
2024/01/31 19:02:35;;;;;;;9.40;2.00;;;;;;;18.56;33.86;102752.19;16136108;19;130129;-64
2024/01/31 19:07:57;;;;;;;15.20;2.40;;;;;;;18.57;33.86;102746.44;16127233;19;130767;-63
2024/01/31 19:13:19;;;;;;;10.18;2.08;;;;;;;18.60;33.67;102729.41;16124475;19;130149;-62
2024/01/31 19:18:41;;;;;;;15.45;2.75;;;;;;;18.65;33.58;102714.94;16125056;19;129729;-62
2024/01/31 19:24:03;;;;;;;19.98;2.58;;;;;;;18.70;33.25;102706.00;16117779;19;130091;-63
2024/01/31 19:29:26;;;;;;;15.77;2.40;;;;;;;18.73;33.01;102720.31;16126660;19;130484;-65
2024/01/31 19:34:48;;;;;;;17.83;2.03;;;;;;;18.77;33.03;102693.00;16122597;19;131047;-63
2024/01/31 19:40:10;;;;;;;13.77;1.75;;;;;;;18.84;33.26;102695.81;16118399;19;134403;-64
2024/01/31 19:45:32;;;;;;;7.90;2.00;;;;;;;18.98;33.54;102694.84;16118661;19;129410;-63
2024/01/31 19:50:54;;;;;;;8.77;1.63;;;;;;;19.15;33.54;102692.56;16123252;19;130551;-63
2024/01/31 19:56:16;;;;;;;8.77;1.65;;;;;;;19.30;33.82;102694.38;16123332;19;130690;-63
2024/01/31 20:01:38;;;;;;;6.38;1.80;;;;;;;19.44;33.62;102684.19;16120568;19;129351;-64
2024/01/31 20:07:05;;;;;;;5.78;1.60;;;;;;;19.54;33.48;102679.09;16120853;19;130807;-64
2024/01/31 20:12:27;;;;;;;6.90;1.55;;;;;;;19.50;33.84;102672.25;16118081;19;129368;-64
2024/01/31 20:17:49;;;;;;;5.10;1.42;;;;;;;19.48;33.73;102652.16;16111170;19;130183;-65
2024/01/31 20:23:12;;;;;;;3.72;1.27;;;;;;;19.45;33.37;102624.81;16117750;19;130743;-64
2024/01/31 20:28:34;;;;;;;4.57;1.15;;;;;;;19.41;33.54;102634.66;16117365;19;131292;-65
2024/01/31 20:33:56;;;;;;;5.22;1.20;;;;;;;19.36;33.31;102636.13;16110425;19;130039;-64
2024/01/31 20:39:18;;;;;;;6.80;1.42;;;;;;;19.31;33.43;102613.72;16115500;19;129557;-63
2024/01/31 20:44:40;;;;;;;3.17;1.33;;;;;;;19.28;33.41;102602.16;16117501;19;129197;-64
2024/01/31 20:50:03;;;;;;;4.78;1.20;;;;;;;19.22;33.55;102606.63;16117072;19;130568;-64
2024/01/31 20:55:25;;;;;;;3.20;1.45;;;;;;;19.18;33.23;102597.84;16112575;19;130215;-64
2024/01/31 21:00:47;;;;;;;3.88;1.30;;;;;;;19.18;33.37;102591.44;16112406;19;129785;-64
2024/01/31 21:06:10;;;;;;;2.30;1.15;;;;;;;19.14;33.68;102587.38;16108137;19;130096;-63
2024/01/31 21:11:35;;;;;;;3.33;1.45;;;;;;;19.10;33.00;102559.19;16112612;19;131172;-64
2024/01/31 21:16:57;;;;;;;2.83;1.40;;;;;;;19.05;33.08;102561.72;16110868;19;131530;-64
2024/01/31 21:22:19;;;;;;;2.30;1.10;;;;;;;19.00;33.39;102564.31;16113792;19;129482;-63
2024/01/31 21:27:42;;;;;;;3.63;0.85;;;;;;;18.93;33.38;102555.97;16110797;19;130650;-64
2024/01/31 21:33:04;;;;;;;2.08;1.10;;;;;;;18.87;33.08;102551.22;16116607;19;131132;-64
2024/01/31 21:38:26;;;;;;;6.25;1.27;;;;;;;18.77;32.75;102562.69;16122910;19;129332;-63
2024/01/31 21:43:48;;;;;;;4.88;1.67;;;;;;;18.68;32.65;102561.19;16110437;19;130468;-64
2024/01/31 21:49:11;;;;;;;4.85;1.23;;;;;;;18.60;32.65;102543.69;16114581;19;129402;-64
2024/01/31 21:54:33;;;;;;;5.85;1.40;;;;;;;18.56;32.92;102555.38;16116382;19;130089;-64
2024/01/31 21:59:57;;;;;;;2.90;1.10;;;;;;;18.50;32.70;102559.84;16112996;19;131086;-64
2024/01/31 22:05:19;;;;;;;2.50;1.05;;;;;;;18.44;33.09;102566.19;16111607;19;129624;-63
2024/01/31 22:10:41;;;;;;;4.45;1.08;;;;;;;18.38;33.28;102576.16;16110323;19;129926;-65
2024/01/31 22:16:03;;;;;;;3.38;1.10;;;;;;;18.31;32.96;102575.25;16108464;19;130143;-64
2024/01/31 22:21:25;;;;;;;3.90;1.00;;;;;;;18.26;33.27;102577.78;16111434;19;129703;-64
2024/01/31 22:26:47;;;;;;;3.95;1.10;;;;;;;18.21;33.55;102578.38;16110605;19;129700;-64
2024/01/31 22:32:09;;;;;;;2.25;0.90;;;;;;;18.15;33.38;102559.81;16108427;19;129818;-64
2024/01/31 22:37:31;;;;;;;5.03;1.05;;;;;;;18.11;33.30;102562.13;16111089;19;130324;-64
2024/01/31 22:42:53;;;;;;;4.32;1.17;;;;;;;18.07;33.65;102530.38;16111883;19;130934;-64
2024/01/31 22:48:16;;;;;;;3.60;1.13;;;;;;;18.03;33.44;102531.00;16108113;19;131637;-64
2024/01/31 22:53:38;;;;;;;4.68;1.40;;;;;;;17.97;33.57;102535.44;16102107;19;129838;-64
2024/01/31 22:59:00;;;;;;;3.67;1.30;;;;;;;17.93;33.82;102539.66;16105571;19;130363;-64
2024/01/31 23:04:22;;;;;;;2.38;1.15;;;;;;;17.88;33.77;102533.84;16106186;19;131271;-64
2024/01/31 23:09:44;;;;;;;2.90;1.20;;;;;;;17.84;33.86;102525.97;16105326;19;130529;-64
2024/01/31 23:15:07;;;;;;;3.22;1.10;;;;;;;17.80;33.83;102516.34;16108004;19;129716;-64
2024/01/31 23:20:29;;;;;;;4.03;1.73;;;;;;;17.78;33.89;102504.63;16121253;19;129685;-64
2024/01/31 23:25:51;;;;;;;4.18;1.30;;;;;;;17.73;34.29;102501.59;16122792;19;129525;-64
2024/01/31 23:31:12;;;;;;;2.63;1.00;;;;;;;17.71;34.19;102502.84;16125105;19;131517;-64
2024/01/31 23:36:34;;;;;;;3.67;1.30;;;;;;;17.68;34.17;102506.88;16120781;19;130548;-64
2024/01/31 23:41:56;;;;;;;3.10;1.30;;;;;;;17.65;34.38;102510.03;16118032;19;131157;-64
2024/01/31 23:47:20;;;;;;;3.35;1.35;;;;;;;17.63;34.36;102512.16;16123651;19;131095;-63
2024/01/31 23:52:42;;;;;;;3.08;1.30;;;;;;;17.59;34.45;102511.69;16121732;19;131036;-63
2024/01/31 23:58:04;;;;;;;3.92;1.27;;;;;;;17.54;34.94;102492.94;16120350;19;131387;-63
